sensor_id;sensor_type;location;lat;lon;timestamp;P1;durP1;ratioP1;P2;durP2;ratioP2
46290;SDS011;32023;44.444;26.006;2022-07-29T00:00:13;8.57;;;6.75;;
46290;SDS011;32023;44.444;26.006;2022-07-29T00:02:39;7.38;;;6.32;;
46290;SDS011;32023;44.444;26.006;2022-07-29T00:05:07;6.80;;;6.10;;
46290;SDS011;32023;44.444;26.006;2022-07-29T00:07:34;8.38;;;6.22;;
46290;SDS011;32023;44.444;26.006;2022-07-29T00:10:00;5.85;;;5.25;;
46290;SDS011;32023;44.444;26.006;2022-07-29T00:12:27;7.13;;;6.20;;
46290;SDS011;32023;44.444;26.006;2022-07-29T00:14:54;9.45;;;6.35;;
46290;SDS011;32023;44.444;26.006;2022-07-29T00:17:22;11.15;;;6.25;;
46290;SDS011;32023;44.444;26.006;2022-07-29T00:19:49;9.35;;;5.57;;
46290;SDS011;32023;44.444;26.006;2022-07-29T00:22:15;12.52;;;6.95;;
46290;SDS011;32023;44.444;26.006;2022-07-29T00:24:42;9.52;;;6.32;;
46290;SDS011;32023;44.444;26.006;2022-07-29T00:27:11;9.48;;;7.32;;
46290;SDS011;32023;44.444;26.006;2022-07-29T00:29:37;11.52;;;6.78;;
46290;SDS011;32023;44.444;26.006;2022-07-29T00:32:03;7.25;;;6.53;;
46290;SDS011;32023;44.444;26.006;2022-07-29T00:34:32;13.07;;;7.10;;
46290;SDS011;32023;44.444;26.006;2022-07-29T00:37:17;8.93;;;6.55;;
46290;SDS011;32023;44.444;26.006;2022-07-29T00:39:43;8.45;;;6.68;;
46290;SDS011;32023;44.444;26.006;2022-07-29T00:42:10;9.05;;;7.07;;
46290;SDS011;32023;44.444;26.006;2022-07-29T00:44:37;8.10;;;6.95;;
46290;SDS011;32023;44.444;26.006;2022-07-29T00:47:05;9.25;;;7.35;;
46290;SDS011;32023;44.444;26.006;2022-07-29T00:49:32;12.75;;;7.65;;
46290;SDS011;32023;44.444;26.006;2022-07-29T00:52:00;12.23;;;7.50;;
46290;SDS011;32023;44.444;26.006;2022-07-29T00:54:28;9.88;;;7.20;;
46290;SDS011;32023;44.444;26.006;2022-07-29T00:57:00;12.07;;;8.38;;
46290;SDS011;32023;44.444;26.006;2022-07-29T00:59:27;16.25;;;8.10;;
46290;SDS011;32023;44.444;26.006;2022-07-29T01:05:06;14.65;;;7.65;;
46290;SDS011;32023;44.444;26.006;2022-07-29T01:15:23;12.32;;;7.65;;
46290;SDS011;32023;44.444;26.006;2022-07-29T01:17:52;8.35;;;7.50;;
46290;SDS011;32023;44.444;26.006;2022-07-29T01:31:58;9.48;;;7.38;;
46290;SDS011;32023;44.444;26.006;2022-07-29T01:37:24;7.45;;;6.70;;
46290;SDS011;32023;44.444;26.006;2022-07-29T01:39:55;10.50;;;7.30;;
46290;SDS011;32023;44.444;26.006;2022-07-29T01:45:20;9.35;;;7.35;;
46290;SDS011;32023;44.444;26.006;2022-07-29T01:48:09;10.30;;;6.80;;
46290;SDS011;32023;44.444;26.006;2022-07-29T01:50:58;8.00;;;7.05;;
46290;SDS011;32023;44.444;26.006;2022-07-29T01:53:32;10.05;;;6.95;;
46290;SDS011;32023;44.444;26.006;2022-07-29T01:56:21;8.80;;;6.93;;
46290;SDS011;32023;44.444;26.006;2022-07-29T02:01:20;7.88;;;7.07;;
46290;SDS011;32023;44.444;26.006;2022-07-29T02:03:50;9.73;;;7.43;;
46290;SDS011;32023;44.444;26.006;2022-07-29T02:06:19;8.43;;;7.40;;
46290;SDS011;32023;44.444;26.006;2022-07-29T02:08:47;11.95;;;7.47;;
46290;SDS011;32023;44.444;26.006;2022-07-29T02:11:18;7.50;;;6.50;;
46290;SDS011;32023;44.444;26.006;2022-07-29T02:13:44;8.35;;;7.30;;
46290;SDS011;32023;44.444;26.006;2022-07-29T02:16:13;8.55;;;6.88;;
46290;SDS011;32023;44.444;26.006;2022-07-29T02:18:44;8.10;;;7.30;;
46290;SDS011;32023;44.444;26.006;2022-07-29T02:21:13;8.10;;;6.70;;
46290;SDS011;32023;44.444;26.006;2022-07-29T02:23:45;7.00;;;6.30;;
46290;SDS011;32023;44.444;26.006;2022-07-29T02:26:13;7.45;;;6.38;;
46290;SDS011;32023;44.444;26.006;2022-07-29T02:28:42;7.97;;;7.18;;
46290;SDS011;32023;44.444;26.006;2022-07-29T02:31:10;8.02;;;6.57;;
46290;SDS011;32023;44.444;26.006;2022-07-29T02:33:38;10.05;;;7.30;;
46290;SDS011;32023;44.444;26.006;2022-07-29T02:36:06;10.07;;;7.55;;
46290;SDS011;32023;44.444;26.006;2022-07-29T02:38:36;8.20;;;7.30;;
46290;SDS011;32023;44.444;26.006;2022-07-29T02:44:12;10.30;;;7.13;;
46290;SDS011;32023;44.444;26.006;2022-07-29T02:46:49;10.00;;;8.18;;
46290;SDS011;32023;44.444;26.006;2022-07-29T02:49:37;8.05;;;7.10;;
46290;SDS011;32023;44.444;26.006;2022-07-29T03:00:31;7.80;;;7.00;;
46290;SDS011;32023;44.444;26.006;2022-07-29T03:03:03;8.18;;;7.22;;
46290;SDS011;32023;44.444;26.006;2022-07-29T03:05:34;9.32;;;7.10;;
46290;SDS011;32023;44.444;26.006;2022-07-29T03:08:01;7.82;;;6.90;;
46290;SDS011;32023;44.444;26.006;2022-07-29T03:10:33;10.20;;;7.65;;
46290;SDS011;32023;44.444;26.006;2022-07-29T03:13:02;11.77;;;7.50;;
46290;SDS011;32023;44.444;26.006;2022-07-29T03:15:30;11.23;;;7.03;;
46290;SDS011;32023;44.444;26.006;2022-07-29T03:17:58;8.35;;;6.93;;
46290;SDS011;32023;44.444;26.006;2022-07-29T03:20:26;11.07;;;7.15;;
46290;SDS011;32023;44.444;26.006;2022-07-29T03:22:52;11.80;;;6.63;;
46290;SDS011;32023;44.444;26.006;2022-07-29T03:25:19;8.30;;;6.75;;
46290;SDS011;32023;44.444;26.006;2022-07-29T03:27:46;9.85;;;7.18;;
46290;SDS011;32023;44.444;26.006;2022-07-29T03:30:27;7.30;;;6.50;;
46290;SDS011;32023;44.444;26.006;2022-07-29T03:32:55;9.43;;;6.00;;
46290;SDS011;32023;44.444;26.006;2022-07-29T03:35:22;10.23;;;6.50;;
46290;SDS011;32023;44.444;26.006;2022-07-29T03:37:48;11.02;;;6.47;;
46290;SDS011;32023;44.444;26.006;2022-07-29T03:40:21;10.25;;;6.97;;
46290;SDS011;32023;44.444;26.006;2022-07-29T03:42:58;7.50;;;6.72;;
46290;SDS011;32023;44.444;26.006;2022-07-29T03:45:27;8.23;;;7.05;;
46290;SDS011;32023;44.444;26.006;2022-07-29T03:47:59;8.52;;;6.38;;
46290;SDS011;32023;44.444;26.006;2022-07-29T03:50:32;10.20;;;6.50;;
46290;SDS011;32023;44.444;26.006;2022-07-29T03:53:00;11.23;;;7.20;;
46290;SDS011;32023;44.444;26.006;2022-07-29T03:55:33;10.73;;;7.00;;
46290;SDS011;32023;44.444;26.006;2022-07-29T03:58:05;10.40;;;6.25;;
46290;SDS011;32023;44.444;26.006;2022-07-29T04:07:13;15.68;;;7.43;;
46290;SDS011;32023;44.444;26.006;2022-07-29T04:09:42;8.68;;;6.68;;
46290;SDS011;32023;44.444;26.006;2022-07-29T04:12:09;12.70;;;7.28;;
46290;SDS011;32023;44.444;26.006;2022-07-29T04:14:35;7.55;;;6.60;;
46290;SDS011;32023;44.444;26.006;2022-07-29T04:17:02;7.88;;;6.60;;
46290;SDS011;32023;44.444;26.006;2022-07-29T04:19:30;12.23;;;6.95;;
46290;SDS011;32023;44.444;26.006;2022-07-29T04:22:00;10.23;;;6.70;;
46290;SDS011;32023;44.444;26.006;2022-07-29T04:24:26;10.48;;;6.70;;
46290;SDS011;32023;44.444;26.006;2022-07-29T04:26:53;7.28;;;6.22;;
46290;SDS011;32023;44.444;26.006;2022-07-29T04:29:19;11.15;;;6.47;;
46290;SDS011;32023;44.444;26.006;2022-07-29T04:31:48;12.13;;;7.00;;
46290;SDS011;32023;44.444;26.006;2022-07-29T04:34:14;9.50;;;6.60;;
46290;SDS011;32023;44.444;26.006;2022-07-29T04:36:46;10.57;;;6.95;;
46290;SDS011;32023;44.444;26.006;2022-07-29T04:39:12;9.13;;;6.90;;
46290;SDS011;32023;44.444;26.006;2022-07-29T04:41:43;8.88;;;7.18;;
46290;SDS011;32023;44.444;26.006;2022-07-29T04:44:09;11.23;;;7.13;;
46290;SDS011;32023;44.444;26.006;2022-07-29T04:46:36;13.00;;;7.60;;
46290;SDS011;32023;44.444;26.006;2022-07-29T04:49:02;9.38;;;7.07;;
46290;SDS011;32023;44.444;26.006;2022-07-29T04:51:29;8.05;;;7.20;;
46290;SDS011;32023;44.444;26.006;2022-07-29T04:53:56;10.07;;;7.15;;
46290;SDS011;32023;44.444;26.006;2022-07-29T04:56:24;11.27;;;7.63;;
46290;SDS011;32023;44.444;26.006;2022-07-29T04:58:53;8.88;;;6.18;;
46290;SDS011;32023;44.444;26.006;2022-07-29T05:01:20;12.82;;;6.78;;
46290;SDS011;32023;44.444;26.006;2022-07-29T05:03:46;11.32;;;6.95;;
46290;SDS011;32023;44.444;26.006;2022-07-29T05:06:12;8.25;;;6.43;;
46290;SDS011;32023;44.444;26.006;2022-07-29T05:08:41;9.15;;;6.13;;
46290;SDS011;32023;44.444;26.006;2022-07-29T05:11:08;8.63;;;5.95;;
46290;SDS011;32023;44.444;26.006;2022-07-29T05:13:35;9.40;;;6.13;;
46290;SDS011;32023;44.444;26.006;2022-07-29T05:16:01;12.43;;;6.53;;
46290;SDS011;32023;44.444;26.006;2022-07-29T05:18:28;10.65;;;5.82;;
46290;SDS011;32023;44.444;26.006;2022-07-29T05:20:55;7.22;;;6.32;;
46290;SDS011;32023;44.444;26.006;2022-07-29T05:23:24;7.43;;;5.80;;
46290;SDS011;32023;44.444;26.006;2022-07-29T05:25:50;8.00;;;5.97;;
46290;SDS011;32023;44.444;26.006;2022-07-29T05:28:16;8.38;;;6.00;;
46290;SDS011;32023;44.444;26.006;2022-07-29T05:30:45;8.73;;;5.35;;
46290;SDS011;32023;44.444;26.006;2022-07-29T05:33:13;8.15;;;6.15;;
46290;SDS011;32023;44.444;26.006;2022-07-29T05:35:39;7.30;;;6.43;;
46290;SDS011;32023;44.444;26.006;2022-07-29T05:38:06;7.05;;;5.68;;
46290;SDS011;32023;44.444;26.006;2022-07-29T05:40:32;6.18;;;5.13;;
46290;SDS011;32023;44.444;26.006;2022-07-29T05:42:59;10.23;;;5.85;;
46290;SDS011;32023;44.444;26.006;2022-07-29T05:45:25;8.65;;;5.80;;
46290;SDS011;32023;44.444;26.006;2022-07-29T05:47:52;6.68;;;4.90;;
46290;SDS011;32023;44.444;26.006;2022-07-29T05:50:19;6.38;;;5.32;;
46290;SDS011;32023;44.444;26.006;2022-07-29T05:52:48;7.80;;;4.90;;
46290;SDS011;32023;44.444;26.006;2022-07-29T05:55:24;7.53;;;5.22;;
46290;SDS011;32023;44.444;26.006;2022-07-29T05:57:52;6.72;;;4.53;;
46290;SDS011;32023;44.444;26.006;2022-07-29T06:00:19;10.68;;;4.57;;
46290;SDS011;32023;44.444;26.006;2022-07-29T06:02:45;6.13;;;4.30;;
46290;SDS011;32023;44.444;26.006;2022-07-29T06:05:12;7.35;;;5.10;;
46290;SDS011;32023;44.444;26.006;2022-07-29T06:07:40;8.88;;;5.35;;
46290;SDS011;32023;44.444;26.006;2022-07-29T06:10:06;11.43;;;5.18;;
46290;SDS011;32023;44.444;26.006;2022-07-29T06:12:33;6.85;;;5.22;;
46290;SDS011;32023;44.444;26.006;2022-07-29T06:14:59;8.50;;;4.35;;
46290;SDS011;32023;44.444;26.006;2022-07-29T06:17:29;8.43;;;4.97;;
46290;SDS011;32023;44.444;26.006;2022-07-29T06:19:55;9.10;;;4.55;;
46290;SDS011;32023;44.444;26.006;2022-07-29T06:22:22;7.80;;;4.80;;
46290;SDS011;32023;44.444;26.006;2022-07-29T06:24:51;8.45;;;4.53;;
46290;SDS011;32023;44.444;26.006;2022-07-29T06:27:22;7.55;;;4.07;;
46290;SDS011;32023;44.444;26.006;2022-07-29T06:29:51;8.30;;;4.43;;
46290;SDS011;32023;44.444;26.006;2022-07-29T06:32:20;7.22;;;4.43;;
46290;SDS011;32023;44.444;26.006;2022-07-29T06:34:47;9.10;;;5.00;;
46290;SDS011;32023;44.444;26.006;2022-07-29T06:39:47;9.27;;;4.40;;
46290;SDS011;32023;44.444;26.006;2022-07-29T06:42:33;10.75;;;4.45;;
46290;SDS011;32023;44.444;26.006;2022-07-29T06:45:03;6.95;;;4.95;;
46290;SDS011;32023;44.444;26.006;2022-07-29T06:47:30;6.85;;;4.70;;
46290;SDS011;32023;44.444;26.006;2022-07-29T06:49:56;4.72;;;4.18;;
46290;SDS011;32023;44.444;26.006;2022-07-29T06:52:23;8.07;;;3.90;;
46290;SDS011;32023;44.444;26.006;2022-07-29T06:54:58;3.92;;;3.63;;
46290;SDS011;32023;44.444;26.006;2022-07-29T06:57:24;5.45;;;3.83;;
46290;SDS011;32023;44.444;26.006;2022-07-29T06:59:51;9.07;;;4.13;;
46290;SDS011;32023;44.444;26.006;2022-07-29T07:02:20;10.48;;;3.65;;
46290;SDS011;32023;44.444;26.006;2022-07-29T07:05:06;12.57;;;4.80;;
46290;SDS011;32023;44.444;26.006;2022-07-29T07:07:32;9.30;;;4.53;;
46290;SDS011;32023;44.444;26.006;2022-07-29T07:09:59;10.27;;;3.97;;
46290;SDS011;32023;44.444;26.006;2022-07-29T07:12:25;7.93;;;3.80;;
46290;SDS011;32023;44.444;26.006;2022-07-29T07:14:52;4.95;;;3.58;;
46290;SDS011;32023;44.444;26.006;2022-07-29T07:17:21;8.05;;;4.07;;
46290;SDS011;32023;44.444;26.006;2022-07-29T07:19:48;7.00;;;3.65;;
46290;SDS011;32023;44.444;26.006;2022-07-29T07:22:14;8.10;;;4.07;;
46290;SDS011;32023;44.444;26.006;2022-07-29T07:24:43;9.43;;;4.22;;
46290;SDS011;32023;44.444;26.006;2022-07-29T07:27:09;7.38;;;3.53;;
46290;SDS011;32023;44.444;26.006;2022-07-29T07:29:35;3.95;;;3.40;;
46290;SDS011;32023;44.444;26.006;2022-07-29T07:32:06;6.18;;;3.30;;
46290;SDS011;32023;44.444;26.006;2022-07-29T07:34:32;7.97;;;3.50;;
46290;SDS011;32023;44.444;26.006;2022-07-29T07:39:30;8.05;;;3.40;;
46290;SDS011;32023;44.444;26.006;2022-07-29T07:41:57;8.30;;;3.55;;
46290;SDS011;32023;44.444;26.006;2022-07-29T07:44:23;6.95;;;3.67;;
46290;SDS011;32023;44.444;26.006;2022-07-29T07:46:50;6.18;;;3.80;;
46290;SDS011;32023;44.444;26.006;2022-07-29T07:49:24;6.05;;;3.67;;
46290;SDS011;32023;44.444;26.006;2022-07-29T07:51:53;4.25;;;2.65;;
46290;SDS011;32023;44.444;26.006;2022-07-29T07:54:22;9.15;;;4.00;;
46290;SDS011;32023;44.444;26.006;2022-07-29T07:56:49;3.45;;;3.10;;
46290;SDS011;32023;44.444;26.006;2022-07-29T07:59:22;4.10;;;2.70;;
46290;SDS011;32023;44.444;26.006;2022-07-29T08:01:49;5.35;;;3.28;;
46290;SDS011;32023;44.444;26.006;2022-07-29T08:04:16;6.00;;;2.95;;
46290;SDS011;32023;44.444;26.006;2022-07-29T08:06:42;6.85;;;3.15;;
46290;SDS011;32023;44.444;26.006;2022-07-29T08:09:20;15.20;;;4.20;;
46290;SDS011;32023;44.444;26.006;2022-07-29T08:11:49;5.40;;;2.85;;
46290;SDS011;32023;44.444;26.006;2022-07-29T08:14:17;4.55;;;2.88;;
46290;SDS011;32023;44.444;26.006;2022-07-29T08:16:46;6.53;;;2.95;;
46290;SDS011;32023;44.444;26.006;2022-07-29T08:19:16;4.20;;;2.65;;
46290;SDS011;32023;44.444;26.006;2022-07-29T08:21:42;5.13;;;2.85;;
46290;SDS011;32023;44.444;26.006;2022-07-29T08:24:18;4.82;;;2.72;;
46290;SDS011;32023;44.444;26.006;2022-07-29T08:27:04;4.13;;;2.50;;
46290;SDS011;32023;44.444;26.006;2022-07-29T08:29:36;5.97;;;2.70;;
46290;SDS011;32023;44.444;26.006;2022-07-29T08:32:03;5.78;;;2.70;;
46290;SDS011;32023;44.444;26.006;2022-07-29T08:34:32;7.03;;;2.63;;
46290;SDS011;32023;44.444;26.006;2022-07-29T08:37:01;11.45;;;3.10;;
46290;SDS011;32023;44.444;26.006;2022-07-29T08:39:28;5.35;;;2.72;;
46290;SDS011;32023;44.444;26.006;2022-07-29T08:41:57;3.38;;;2.78;;
46290;SDS011;32023;44.444;26.006;2022-07-29T08:44:24;4.57;;;2.60;;
46290;SDS011;32023;44.444;26.006;2022-07-29T08:46:51;12.55;;;2.45;;
46290;SDS011;32023;44.444;26.006;2022-07-29T08:49:21;7.32;;;3.08;;
46290;SDS011;32023;44.444;26.006;2022-07-29T08:51:57;7.25;;;3.00;;
46290;SDS011;32023;44.444;26.006;2022-07-29T08:54:25;6.10;;;3.17;;
46290;SDS011;32023;44.444;26.006;2022-07-29T08:56:54;6.40;;;2.75;;
46290;SDS011;32023;44.444;26.006;2022-07-29T08:59:25;5.55;;;2.65;;
46290;SDS011;32023;44.444;26.006;2022-07-29T09:01:56;3.15;;;1.92;;
46290;SDS011;32023;44.444;26.006;2022-07-29T09:04:26;4.50;;;2.45;;
46290;SDS011;32023;44.444;26.006;2022-07-29T09:06:56;3.28;;;2.10;;
46290;SDS011;32023;44.444;26.006;2022-07-29T09:09:29;5.63;;;2.20;;
46290;SDS011;32023;44.444;26.006;2022-07-29T09:11:58;8.27;;;2.80;;
46290;SDS011;32023;44.444;26.006;2022-07-29T09:14:29;5.75;;;3.38;;
46290;SDS011;32023;44.444;26.006;2022-07-29T09:16:55;3.80;;;2.25;;
46290;SDS011;32023;44.444;26.006;2022-07-29T09:19:29;7.63;;;2.78;;
46290;SDS011;32023;44.444;26.006;2022-07-29T09:21:58;2.47;;;2.28;;
46290;SDS011;32023;44.444;26.006;2022-07-29T09:29:44;2.42;;;2.00;;
46290;SDS011;32023;44.444;26.006;2022-07-29T09:32:15;5.28;;;2.40;;
46290;SDS011;32023;44.444;26.006;2022-07-29T09:34:42;4.70;;;2.20;;
46290;SDS011;32023;44.444;26.006;2022-07-29T09:37:08;3.08;;;1.92;;
46290;SDS011;32023;44.444;26.006;2022-07-29T09:39:37;4.55;;;2.35;;
46290;SDS011;32023;44.444;26.006;2022-07-29T09:42:11;5.57;;;2.05;;
46290;SDS011;32023;44.444;26.006;2022-07-29T09:44:47;6.03;;;2.20;;
46290;SDS011;32023;44.444;26.006;2022-07-29T09:47:15;8.25;;;2.30;;
46290;SDS011;32023;44.444;26.006;2022-07-29T09:49:50;2.40;;;2.20;;
46290;SDS011;32023;44.444;26.006;2022-07-29T09:52:23;2.67;;;2.10;;
46290;SDS011;32023;44.444;26.006;2022-07-29T09:54:53;3.25;;;2.55;;
46290;SDS011;32023;44.444;26.006;2022-07-29T09:57:29;2.65;;;2.20;;
46290;SDS011;32023;44.444;26.006;2022-07-29T10:02:34;7.07;;;2.03;;
46290;SDS011;32023;44.444;26.006;2022-07-29T10:05:03;3.03;;;2.15;;
46290;SDS011;32023;44.444;26.006;2022-07-29T10:07:48;2.28;;;1.92;;
46290;SDS011;32023;44.444;26.006;2022-07-29T10:10:20;3.22;;;2.15;;
46290;SDS011;32023;44.444;26.006;2022-07-29T10:12:50;2.42;;;2.22;;
46290;SDS011;32023;44.444;26.006;2022-07-29T10:15:21;6.33;;;2.70;;
46290;SDS011;32023;44.444;26.006;2022-07-29T10:17:50;21.73;;;3.05;;
46290;SDS011;32023;44.444;26.006;2022-07-29T10:20:18;9.70;;;2.50;;
46290;SDS011;32023;44.444;26.006;2022-07-29T10:22:46;5.47;;;2.13;;
46290;SDS011;32023;44.444;26.006;2022-07-29T10:25:14;2.95;;;2.25;;
46290;SDS011;32023;44.444;26.006;2022-07-29T10:27:42;4.13;;;2.30;;
46290;SDS011;32023;44.444;26.006;2022-07-29T10:30:10;3.20;;;2.30;;
46290;SDS011;32023;44.444;26.006;2022-07-29T10:35:33;7.75;;;2.40;;
46290;SDS011;32023;44.444;26.006;2022-07-29T10:41:16;2.17;;;1.98;;
46290;SDS011;32023;44.444;26.006;2022-07-29T10:44:12;3.63;;;2.30;;
46290;SDS011;32023;44.444;26.006;2022-07-29T10:46:43;4.50;;;2.30;;
46290;SDS011;32023;44.444;26.006;2022-07-29T10:49:12;4.03;;;2.22;;
46290;SDS011;32023;44.444;26.006;2022-07-29T10:59:51;7.80;;;2.10;;
46290;SDS011;32023;44.444;26.006;2022-07-29T11:05:15;2.60;;;2.00;;
46290;SDS011;32023;44.444;26.006;2022-07-29T11:11:31;4.90;;;1.70;;
46290;SDS011;32023;44.444;26.006;2022-07-29T11:13:55;3.63;;;1.98;;
46290;SDS011;32023;44.444;26.006;2022-07-29T11:16:57;2.53;;;1.75;;
46290;SDS011;32023;44.444;26.006;2022-07-29T11:19:33;4.85;;;2.30;;
46290;SDS011;32023;44.444;26.006;2022-07-29T11:22:01;5.38;;;2.05;;
46290;SDS011;32023;44.444;26.006;2022-07-29T11:24:39;2.47;;;1.88;;
46290;SDS011;32023;44.444;26.006;2022-07-29T11:30:04;2.10;;;1.80;;
46290;SDS011;32023;44.444;26.006;2022-07-29T11:32:38;4.07;;;2.22;;
46290;SDS011;32023;44.444;26.006;2022-07-29T11:35:17;7.07;;;2.20;;
46290;SDS011;32023;44.444;26.006;2022-07-29T11:41:21;2.78;;;2.10;;
46290;SDS011;32023;44.444;26.006;2022-07-29T11:43:51;6.88;;;2.15;;
46290;SDS011;32023;44.444;26.006;2022-07-29T11:49:23;2.65;;;1.77;;
46290;SDS011;32023;44.444;26.006;2022-07-29T11:51:52;6.85;;;2.28;;
46290;SDS011;32023;44.444;26.006;2022-07-29T11:54:23;4.40;;;2.25;;
46290;SDS011;32023;44.444;26.006;2022-07-29T11:56:59;5.35;;;2.30;;
46290;SDS011;32023;44.444;26.006;2022-07-29T11:59:26;6.43;;;2.78;;
46290;SDS011;32023;44.444;26.006;2022-07-29T12:01:57;5.45;;;2.20;;
46290;SDS011;32023;44.444;26.006;2022-07-29T12:04:25;8.38;;;2.67;;
46290;SDS011;32023;44.444;26.006;2022-07-29T12:06:55;4.20;;;2.42;;
46290;SDS011;32023;44.444;26.006;2022-07-29T12:09:22;4.95;;;1.85;;
46290;SDS011;32023;44.444;26.006;2022-07-29T12:11:49;2.83;;;2.13;;
46290;SDS011;32023;44.444;26.006;2022-07-29T12:14:25;7.03;;;2.13;;
46290;SDS011;32023;44.444;26.006;2022-07-29T12:17:24;4.47;;;2.10;;
46290;SDS011;32023;44.444;26.006;2022-07-29T12:19:52;4.68;;;2.45;;
46290;SDS011;32023;44.444;26.006;2022-07-29T12:25:01;4.07;;;2.40;;
46290;SDS011;32023;44.444;26.006;2022-07-29T12:27:41;6.55;;;3.00;;
46290;SDS011;32023;44.444;26.006;2022-07-29T12:30:14;10.05;;;4.10;;
46290;SDS011;32023;44.444;26.006;2022-07-29T12:32:43;7.68;;;2.70;;
46290;SDS011;32023;44.444;26.006;2022-07-29T12:38:00;6.10;;;2.40;;
46290;SDS011;32023;44.444;26.006;2022-07-29T12:40:30;5.05;;;2.42;;
46290;SDS011;32023;44.444;26.006;2022-07-29T12:43:08;8.15;;;2.80;;
46290;SDS011;32023;44.444;26.006;2022-07-29T12:45:48;5.00;;;2.50;;
46290;SDS011;32023;44.444;26.006;2022-07-29T12:51:07;4.32;;;2.30;;
46290;SDS011;32023;44.444;26.006;2022-07-29T12:53:37;7.07;;;2.13;;
46290;SDS011;32023;44.444;26.006;2022-07-29T12:59:35;2.83;;;2.20;;
46290;SDS011;32023;44.444;26.006;2022-07-29T13:02:02;5.97;;;2.20;;
46290;SDS011;32023;44.444;26.006;2022-07-29T13:04:32;5.18;;;2.20;;
46290;SDS011;32023;44.444;26.006;2022-07-29T13:09:40;2.28;;;1.92;;
46290;SDS011;32023;44.444;26.006;2022-07-29T13:12:18;4.90;;;2.30;;
46290;SDS011;32023;44.444;26.006;2022-07-29T13:15:11;4.93;;;2.30;;
46290;SDS011;32023;44.444;26.006;2022-07-29T13:17:50;5.80;;;2.20;;
46290;SDS011;32023;44.444;26.006;2022-07-29T13:20:28;3.45;;;2.25;;
46290;SDS011;32023;44.444;26.006;2022-07-29T13:23:05;3.00;;;2.30;;
46290;SDS011;32023;44.444;26.006;2022-07-29T13:25:34;15.00;;;2.80;;
46290;SDS011;32023;44.444;26.006;2022-07-29T13:28:05;4.10;;;2.47;;
46290;SDS011;32023;44.444;26.006;2022-07-29T13:30:32;6.00;;;2.17;;
46290;SDS011;32023;44.444;26.006;2022-07-29T13:33:14;7.80;;;2.60;;
46290;SDS011;32023;44.444;26.006;2022-07-29T13:35:42;4.22;;;2.53;;
46290;SDS011;32023;44.444;26.006;2022-07-29T13:38:11;3.28;;;2.05;;
46290;SDS011;32023;44.444;26.006;2022-07-29T13:40:45;4.93;;;2.17;;
46290;SDS011;32023;44.444;26.006;2022-07-29T13:43:14;10.20;;;3.10;;
46290;SDS011;32023;44.444;26.006;2022-07-29T13:45:43;2.95;;;2.55;;
46290;SDS011;32023;44.444;26.006;2022-07-29T13:48:27;7.22;;;2.67;;
46290;SDS011;32023;44.444;26.006;2022-07-29T13:51:02;6.75;;;2.60;;
46290;SDS011;32023;44.444;26.006;2022-07-29T13:53:29;3.08;;;2.13;;
46290;SDS011;32023;44.444;26.006;2022-07-29T13:56:00;4.15;;;2.13;;
46290;SDS011;32023;44.444;26.006;2022-07-29T14:00:57;5.22;;;2.15;;
46290;SDS011;32023;44.444;26.006;2022-07-29T14:03:23;3.03;;;2.40;;
46290;SDS011;32023;44.444;26.006;2022-07-29T14:05:50;6.45;;;2.40;;
46290;SDS011;32023;44.444;26.006;2022-07-29T14:08:22;2.67;;;2.15;;
46290;SDS011;32023;44.444;26.006;2022-07-29T14:10:48;3.20;;;2.53;;
46290;SDS011;32023;44.444;26.006;2022-07-29T14:13:15;5.15;;;2.50;;
46290;SDS011;32023;44.444;26.006;2022-07-29T14:15:41;6.25;;;3.10;;
46290;SDS011;32023;44.444;26.006;2022-07-29T14:18:08;6.90;;;2.58;;
46290;SDS011;32023;44.444;26.006;2022-07-29T14:20:34;4.05;;;2.13;;
46290;SDS011;32023;44.444;26.006;2022-07-29T14:23:01;3.03;;;2.30;;
46290;SDS011;32023;44.444;26.006;2022-07-29T14:28:01;4.13;;;2.10;;
46290;SDS011;32023;44.444;26.006;2022-07-29T14:30:27;5.82;;;2.20;;
46290;SDS011;32023;44.444;26.006;2022-07-29T14:32:54;2.15;;;1.98;;
46290;SDS011;32023;44.444;26.006;2022-07-29T14:35:26;4.55;;;2.72;;
46290;SDS011;32023;44.444;26.006;2022-07-29T14:37:53;5.22;;;2.30;;
46290;SDS011;32023;44.444;26.006;2022-07-29T14:40:20;4.80;;;2.47;;
46290;SDS011;32023;44.444;26.006;2022-07-29T14:42:46;2.70;;;2.38;;
46290;SDS011;32023;44.444;26.006;2022-07-29T14:45:15;8.80;;;2.40;;
46290;SDS011;32023;44.444;26.006;2022-07-29T14:47:48;7.22;;;2.47;;
46290;SDS011;32023;44.444;26.006;2022-07-29T14:50:19;5.72;;;2.58;;
46290;SDS011;32023;44.444;26.006;2022-07-29T14:52:48;4.07;;;2.45;;
46290;SDS011;32023;44.444;26.006;2022-07-29T14:55:15;2.63;;;2.08;;
46290;SDS011;32023;44.444;26.006;2022-07-29T14:57:46;7.10;;;2.80;;
46290;SDS011;32023;44.444;26.006;2022-07-29T15:00:28;6.25;;;2.72;;
46290;SDS011;32023;44.444;26.006;2022-07-29T15:02:57;5.18;;;2.30;;
46290;SDS011;32023;44.444;26.006;2022-07-29T15:05:29;3.83;;;2.13;;
46290;SDS011;32023;44.444;26.006;2022-07-29T15:08:12;8.07;;;2.40;;
46290;SDS011;32023;44.444;26.006;2022-07-29T15:10:39;2.67;;;2.42;;
46290;SDS011;32023;44.444;26.006;2022-07-29T15:13:06;4.85;;;2.30;;
46290;SDS011;32023;44.444;26.006;2022-07-29T15:15:33;3.03;;;2.28;;
46290;SDS011;32023;44.444;26.006;2022-07-29T15:18:00;2.78;;;2.33;;
46290;SDS011;32023;44.444;26.006;2022-07-29T15:20:39;5.97;;;3.00;;
46290;SDS011;32023;44.444;26.006;2022-07-29T15:23:12;3.63;;;2.25;;
46290;SDS011;32023;44.444;26.006;2022-07-29T15:25:39;9.70;;;2.40;;
46290;SDS011;32023;44.444;26.006;2022-07-29T15:28:05;6.80;;;2.67;;
46290;SDS011;32023;44.444;26.006;2022-07-29T15:30:33;7.80;;;3.83;;
46290;SDS011;32023;44.444;26.006;2022-07-29T15:33:06;4.93;;;3.33;;
46290;SDS011;32023;44.444;26.006;2022-07-29T15:35:48;3.53;;;2.28;;
46290;SDS011;32023;44.444;26.006;2022-07-29T15:38:15;5.20;;;2.28;;
46290;SDS011;32023;44.444;26.006;2022-07-29T15:40:42;4.00;;;2.25;;
46290;SDS011;32023;44.444;26.006;2022-07-29T15:43:14;6.97;;;2.50;;
46290;SDS011;32023;44.444;26.006;2022-07-29T15:45:43;4.10;;;2.45;;
46290;SDS011;32023;44.444;26.006;2022-07-29T15:48:29;6.95;;;2.33;;
46290;SDS011;32023;44.444;26.006;2022-07-29T15:50:56;4.80;;;2.80;;
46290;SDS011;32023;44.444;26.006;2022-07-29T15:53:26;3.38;;;2.38;;
46290;SDS011;32023;44.444;26.006;2022-07-29T15:55:55;5.22;;;2.47;;
46290;SDS011;32023;44.444;26.006;2022-07-29T15:58:24;3.30;;;2.40;;
46290;SDS011;32023;44.444;26.006;2022-07-29T16:00:50;5.07;;;2.63;;
46290;SDS011;32023;44.444;26.006;2022-07-29T16:03:17;9.00;;;3.05;;
46290;SDS011;32023;44.444;26.006;2022-07-29T16:05:43;4.65;;;2.50;;
46290;SDS011;32023;44.444;26.006;2022-07-29T16:08:13;4.43;;;2.35;;
46290;SDS011;32023;44.444;26.006;2022-07-29T16:10:42;5.10;;;1.90;;
46290;SDS011;32023;44.444;26.006;2022-07-29T16:13:11;3.58;;;2.50;;
46290;SDS011;32023;44.444;26.006;2022-07-29T16:15:37;7.85;;;2.53;;
46290;SDS011;32023;44.444;26.006;2022-07-29T16:18:07;7.65;;;2.55;;
46290;SDS011;32023;44.444;26.006;2022-07-29T16:20:34;3.40;;;2.30;;
46290;SDS011;32023;44.444;26.006;2022-07-29T16:23:04;5.80;;;2.60;;
46290;SDS011;32023;44.444;26.006;2022-07-29T16:25:33;4.13;;;2.90;;
46290;SDS011;32023;44.444;26.006;2022-07-29T16:28:00;5.18;;;2.10;;
46290;SDS011;32023;44.444;26.006;2022-07-29T16:30:29;3.20;;;2.38;;
46290;SDS011;32023;44.444;26.006;2022-07-29T16:32:55;4.20;;;2.45;;
46290;SDS011;32023;44.444;26.006;2022-07-29T16:35:22;3.85;;;3.05;;
46290;SDS011;32023;44.444;26.006;2022-07-29T16:37:51;4.57;;;2.95;;
46290;SDS011;32023;44.444;26.006;2022-07-29T16:40:18;7.85;;;2.70;;